F/V Gulf Stream — FGA5720 — position and weather

sailwx.info

Track history (hours):
 
Tides and Currents Weather Stations Pressure Air Temp Water Temp Dewpoint Dewpoint Depression Visibility Wind Speed Wind Dir Waves Ship Positions

F/V Gulf Stream

Last reported at 2017-Nov-16 21:15 UTC. Time now 2017-Nov-20 23:02 UTC.
Position N 46°44' W 002°21'.

Length 12 m.

Type: Fishing. MMSI: 227316330.

Date/timePositionNaut miles runAvg speedWind from/ knotsBaromVisibWave heightAir tempDewpointWater temp
2017-Nov-16 21:15N 46°44' W 002°21'1 0.1
2017-Nov-16 15:38N 46°44' W 002°21'3 1.4
2017-Nov-16 13:12N 46°43' W 002°25'2 3.9
2017-Nov-16 12:43N 46°41' W 002°23'0 1.5
2017-Nov-16 12:27N 46°42' W 002°24'1 1.5
2017-Nov-16 12:00N 46°42' W 002°24'1 1.5
2017-Nov-16 11:30N 46°43' W 002°25'2 3.5
2017-Nov-16 11:00N 46°44' W 002°25'3 5.2
2017-Nov-16 10:30N 46°44' W 002°21'0 0.1
2017-Nov-16 06:15N 46°44' W 002°21'4 5.6
2017-Nov-16 05:37N 46°43' W 002°26'1 6.7
2017-Nov-16 05:29N 46°42' W 002°25'1 1.9
2017-Nov-16 04:58N 46°42' W 002°24'3 5.3
2017-Nov-16 04:27N 46°44' W 002°24'  
Track history (hours):
 
Tides and Currents Weather Stations Pressure Air Temp Water Temp Dewpoint Dewpoint Depression Visibility Wind Speed Wind Dir Waves Ship Positions

F/V Gulf Stream

Last reported at 2017-Nov-16 21:15 UTC. Time now 2017-Nov-20 23:02 UTC.
Position N 46°44' W 002°21'.

Length 12 m.

Type: Fishing. MMSI: 227316330.

Date/timePositionNaut miles runAvg speedWind from/ knotsBaromVisibWave heightAir tempDewpointWater temp
2017-Nov-16 21:15N 46°44' W 002°21'1 0.1
2017-Nov-16 15:38N 46°44' W 002°21'3 1.4
2017-Nov-16 13:12N 46°43' W 002°25'2 3.9
2017-Nov-16 12:43N 46°41' W 002°23'0 1.5
2017-Nov-16 12:27N 46°42' W 002°24'1 1.5
2017-Nov-16 12:00N 46°42' W 002°24'1 1.5
2017-Nov-16 11:30N 46°43' W 002°25'2 3.5
2017-Nov-16 11:00N 46°44' W 002°25'3 5.2
2017-Nov-16 10:30N 46°44' W 002°21'0 0.1
2017-Nov-16 06:15N 46°44' W 002°21'4 5.6
2017-Nov-16 05:37N 46°43' W 002°26'1 6.7
2017-Nov-16 05:29N 46°42' W 002°25'1 1.9
2017-Nov-16 04:58N 46°42' W 002°24'3 5.3
2017-Nov-16 04:27N 46°44' W 002°24'  

Dump ship's entire track history